createdAt,value
2018-08-22T00:01:32.652Z,9.40
2018-08-22T00:06:13.001Z,10.68
2018-08-22T00:10:53.926Z,9.08
2018-08-22T00:15:35.251Z,9.10
2018-08-22T00:20:15.359Z,9.25
2018-08-22T00:24:57.064Z,9.28
2018-08-22T00:29:37.028Z,10.78
2018-08-22T00:34:16.984Z,10.28
2018-08-22T00:38:57.583Z,8.70
2018-08-22T00:43:37.544Z,10.23
2018-08-22T00:48:17.586Z,11.50
2018-08-22T00:52:57.655Z,9.33
2018-08-22T00:57:38.091Z,9.23
2018-08-22T01:02:18.860Z,9.88
2018-08-22T01:06:58.874Z,9.18
2018-08-22T01:11:39.136Z,8.68
2018-08-22T01:16:19.215Z,9.05
2018-08-22T01:20:59.088Z,11.00
2018-08-22T01:25:40.195Z,9.48
2018-08-22T01:30:20.767Z,10.10
2018-08-22T01:35:00.514Z,9.63
2018-08-22T01:39:41.144Z,8.63
2018-08-22T01:44:21.951Z,10.10
2018-08-22T01:49:02.001Z,10.35
2018-08-22T01:53:41.899Z,9.75
2018-08-22T01:58:22.220Z,10.45
2018-08-22T02:03:02.888Z,9.35
2018-08-22T02:07:42.830Z,9.13
2018-08-22T02:12:23.466Z,13.00
2018-08-22T02:17:03.235Z,11.60
2018-08-22T02:21:43.927Z,10.40
2018-08-22T02:26:23.928Z,9.83
2018-08-22T02:31:04.957Z,9.85
2018-08-22T02:35:46.512Z,10.35
2018-08-22T02:40:26.113Z,10.70
2018-08-22T02:45:05.940Z,11.38
2018-08-22T02:49:47.604Z,10.45
2018-08-22T02:54:27.436Z,13.18
2018-08-22T02:59:07.167Z,10.93
2018-08-22T03:03:47.009Z,10.72
2018-08-22T03:08:27.516Z,10.95
2018-08-22T03:13:08.052Z,10.88
2018-08-22T03:17:48.023Z,11.95
2018-08-22T03:22:27.907Z,11.43
2018-08-22T03:27:08.620Z,11.50
2018-08-22T03:31:48.276Z,12.28
2018-08-22T03:36:29.708Z,11.20
2018-08-22T03:41:10.892Z,12.03
2018-08-22T03:45:50.815Z,11.70
2018-08-22T03:50:31.084Z,11.53
2018-08-22T03:55:13.340Z,11.33
2018-08-22T03:59:53.672Z,10.90
2018-08-22T04:04:33.646Z,12.50
2018-08-22T04:09:14.474Z,11.97
2018-08-22T04:13:54.760Z,11.70
2018-08-22T04:18:34.566Z,12.00
2018-08-22T04:23:14.500Z,10.88
2018-08-22T04:27:54.749Z,11.75
2018-08-22T04:32:34.657Z,11.57
2018-08-22T04:37:14.899Z,12.60
2018-08-22T04:41:54.916Z,13.18
2018-08-22T04:46:35.684Z,11.85
2018-08-22T04:51:16.560Z,13.80
2018-08-22T04:55:57.240Z,11.43
2018-08-22T05:00:37.255Z,12.73
2018-08-22T05:05:17.078Z,12.88
2018-08-22T05:09:58.082Z,13.53
2018-08-22T05:14:38.511Z,11.43
2018-08-22T05:19:18.415Z,14.53
2018-08-22T05:23:58.395Z,13.08
2018-08-22T05:28:38.468Z,12.13
2018-08-22T05:33:19.245Z,12.33
2018-08-22T05:37:59.065Z,15.08
2018-08-22T05:42:39.270Z,14.28
2018-08-22T05:47:19.231Z,11.93
2018-08-22T05:51:59.104Z,12.23
2018-08-22T05:56:39.057Z,12.80
2018-08-22T06:01:18.877Z,11.60
2018-08-22T06:05:58.658Z,12.85
2018-08-22T06:10:38.947Z,15.20
2018-08-22T06:15:20.353Z,11.95
2018-08-22T06:20:00.010Z,14.30
2018-08-22T06:24:40.072Z,15.30
2018-08-22T06:29:20.157Z,12.65
2018-08-22T06:33:59.876Z,17.12
2018-08-22T06:38:40.688Z,16.93
2018-08-22T06:43:20.309Z,13.68
2018-08-22T06:48:01.214Z,17.57
2018-08-22T06:52:42.077Z,16.00
2018-08-22T06:57:21.776Z,16.07
2018-08-22T07:02:01.847Z,18.30
2018-08-22T07:06:41.572Z,14.87
2018-08-22T07:11:22.316Z,14.28
2018-08-22T07:16:02.384Z,15.23
2018-08-22T07:20:43.289Z,15.20
2018-08-22T07:25:24.047Z,13.50
2018-08-22T07:30:05.140Z,18.50
2018-08-22T07:34:45.348Z,19.32
2018-08-22T07:39:25.132Z,16.30
2018-08-22T07:44:05.308Z,22.48
2018-08-22T07:48:46.116Z,17.92
2018-08-22T07:53:25.997Z,17.12
2018-08-22T07:58:06.211Z,20.50
2018-08-22T08:02:46.176Z,17.90
2018-08-22T08:07:26.143Z,15.85
2018-08-22T08:12:06.070Z,16.52
2018-08-22T08:16:46.604Z,12.50
2018-08-22T08:21:27.297Z,12.78
2018-08-22T08:26:07.719Z,8.65
2018-08-22T08:30:47.442Z,10.03
2018-08-22T08:35:27.612Z,6.10
2018-08-22T08:40:07.667Z,7.25
2018-08-22T08:44:47.523Z,6.75
2018-08-22T08:49:28.176Z,6.40
2018-08-22T08:54:09.120Z,6.53
2018-08-22T08:58:50.208Z,9.25
2018-08-22T09:03:30.184Z,6.15
2018-08-22T09:08:10.788Z,6.67
2018-08-22T09:12:52.772Z,8.50
2018-08-22T09:17:33.022Z,6.08
2018-08-22T09:22:12.756Z,5.97
2018-08-22T09:26:53.584Z,5.92
2018-08-22T09:31:33.805Z,7.33
2018-08-22T09:36:15.948Z,6.10
2018-08-22T09:40:55.765Z,5.80
2018-08-22T09:45:36.665Z,6.97
2018-08-22T09:50:17.144Z,9.15
2018-08-22T09:55:00.292Z,6.85
2018-08-22T09:59:40.556Z,5.20
2018-08-22T10:04:20.892Z,5.25
2018-08-22T10:09:02.892Z,4.92
2018-08-22T10:13:43.552Z,6.33
2018-08-22T10:18:23.595Z,5.33
2018-08-22T10:23:04.113Z,5.62
2018-08-22T10:27:43.864Z,10.70
2018-08-22T10:32:25.232Z,5.28
2018-08-22T10:37:06.084Z,5.10
2018-08-22T10:41:46.864Z,5.90
2018-08-22T10:46:27.172Z,5.87
2018-08-22T10:51:08.351Z,5.15
2018-08-22T10:55:49.161Z,5.62
2018-08-22T11:00:29.856Z,6.12
2018-08-22T11:05:09.585Z,5.67
2018-08-22T11:09:50.295Z,4.97
2018-08-22T11:14:30.445Z,5.00
2018-08-22T11:19:10.716Z,4.85
2018-08-22T11:24:01.861Z,6.65
2018-08-22T11:28:52.913Z,5.08
2018-08-22T11:33:44.480Z,4.65
2018-08-22T11:38:24.555Z,4.12
2018-08-22T11:43:04.584Z,4.90
2018-08-22T11:47:44.970Z,4.95
2018-08-22T11:52:25.311Z,7.67
2018-08-22T11:57:05.192Z,6.37
2018-08-22T12:01:45.930Z,5.65
2018-08-22T12:06:26.179Z,4.85
2018-08-22T12:11:07.953Z,5.90
2018-08-22T12:15:47.632Z,6.12
2018-08-22T12:20:28.040Z,5.65
2018-08-22T12:25:08.647Z,5.20
2018-08-22T12:29:48.558Z,4.78
2018-08-22T12:34:28.615Z,3.98
2018-08-22T12:39:08.582Z,4.20
2018-08-22T12:43:49.541Z,4.78
2018-08-22T12:48:30.111Z,5.80
2018-08-22T12:53:09.787Z,6.22
2018-08-22T12:57:49.652Z,3.85
2018-08-22T13:02:29.532Z,4.67
2018-08-22T13:07:09.496Z,4.65
2018-08-22T13:11:50.047Z,3.90
2018-08-22T13:16:31.973Z,3.90
2018-08-22T13:21:12.339Z,4.78
2018-08-22T13:25:53.072Z,4.58
2018-08-22T13:30:33.595Z,4.28
2018-08-22T13:35:13.851Z,5.12
2018-08-22T13:39:54.004Z,7.20
2018-08-22T13:44:35.203Z,3.92
2018-08-22T13:49:18.584Z,7.22
2018-08-22T13:53:58.961Z,6.72
2018-08-22T13:58:38.855Z,7.67
2018-08-22T14:03:18.733Z,4.78
2018-08-22T14:07:58.609Z,5.05
2018-08-22T14:12:38.938Z,6.67
2018-08-22T14:17:18.993Z,5.47
2018-08-22T14:21:59.875Z,7.40
2018-08-22T14:26:41.418Z,5.72
2018-08-22T14:31:22.678Z,6.40
2018-08-22T14:36:03.254Z,5.83
2018-08-22T14:40:44.553Z,6.85
2018-08-22T14:45:26.706Z,5.28
2018-08-22T14:50:07.088Z,4.20
2018-08-22T14:54:47.792Z,6.87
2018-08-22T14:59:28.243Z,5.35
2018-08-22T15:04:08.244Z,5.67
2018-08-22T15:08:49.354Z,7.62
2018-08-22T15:13:30.176Z,6.50
2018-08-22T15:18:10.240Z,8.33
2018-08-22T15:22:51.900Z,8.13
2018-08-22T15:27:32.767Z,9.98
2018-08-22T15:32:13.196Z,6.75
2018-08-22T15:36:53.147Z,9.10
2018-08-22T15:41:34.336Z,5.00
2018-08-22T15:46:14.407Z,4.40
2018-08-22T15:50:55.120Z,6.42
2018-08-22T15:55:35.256Z,7.10
2018-08-22T16:00:23.689Z,6.53
2018-08-22T16:05:04.074Z,5.80
2018-08-22T16:09:44.695Z,4.70
2018-08-22T16:14:24.747Z,4.60
2018-08-22T16:19:04.922Z,8.03
2018-08-22T16:23:47.032Z,6.87
2018-08-22T16:28:30.237Z,4.72
2018-08-22T16:33:11.472Z,6.53
2018-08-22T16:38:05.676Z,10.30
2018-08-22T16:42:48.264Z,7.33
2018-08-22T16:47:32.538Z,7.53
2018-08-22T16:52:12.539Z,6.05
2018-08-22T16:56:53.424Z,7.53
2018-08-22T17:01:33.713Z,4.85
2018-08-22T17:06:14.615Z,5.10
2018-08-22T17:10:58.125Z,6.42
2018-08-22T17:15:46.370Z,6.12
2018-08-22T17:20:26.790Z,6.37
2018-08-22T17:25:13.208Z,6.50
2018-08-22T17:29:53.461Z,7.37
2018-08-22T17:34:34.316Z,12.20
2018-08-22T17:39:14.425Z,7.95
2018-08-22T17:44:06.100Z,5.97
2018-08-22T17:48:48.485Z,9.85
2018-08-22T17:53:28.861Z,14.30
2018-08-22T17:58:08.835Z,9.15
2018-08-22T18:02:50.652Z,8.60
2018-08-22T18:07:30.772Z,31.68
2018-08-22T18:12:11.494Z,7.10
2018-08-22T18:16:55.544Z,6.30
2018-08-22T18:21:44.628Z,6.25
2018-08-22T18:26:24.804Z,5.87
2018-08-22T18:31:04.623Z,5.85
2018-08-22T18:35:45.949Z,5.33
2018-08-22T18:40:28.836Z,9.23
2018-08-22T18:45:10.326Z,6.08
2018-08-22T18:49:50.944Z,5.92
2018-08-22T18:54:31.498Z,6.37
2018-08-22T18:59:23.938Z,7.72
2018-08-22T19:04:03.768Z,6.15
2018-08-22T19:08:43.820Z,6.00
2018-08-22T19:13:25.896Z,8.23
2018-08-22T19:18:07.844Z,7.08
2018-08-22T19:22:47.699Z,7.80
2018-08-22T19:27:28.335Z,5.87
2018-08-22T19:32:08.181Z,7.97
2018-08-22T19:36:48.323Z,7.10
2018-08-22T19:41:32.303Z,6.45
2018-08-22T19:46:12.458Z,7.30
2018-08-22T19:50:52.396Z,9.83
2018-08-22T19:55:34.099Z,7.20
2018-08-22T20:00:14.964Z,9.53
2018-08-22T20:04:56.485Z,9.68
2018-08-22T20:09:40.577Z,7.50
2018-08-22T20:14:20.989Z,7.55
2018-08-22T20:19:04.692Z,7.17
2018-08-22T20:23:45.207Z,8.45
2018-08-22T20:28:25.557Z,10.63
2018-08-22T20:33:09.497Z,9.48
2018-08-22T20:37:49.512Z,8.65
2018-08-22T20:42:30.471Z,8.35
2018-08-22T20:47:10.216Z,7.83
2018-08-22T20:51:50.210Z,8.05
2018-08-22T20:56:30.932Z,8.53
2018-08-22T21:01:11.709Z,8.45
2018-08-22T21:05:52.060Z,7.90
2018-08-22T21:10:32.229Z,8.93
2018-08-22T21:15:12.732Z,8.20
2018-08-22T21:19:55.575Z,8.68
2018-08-22T21:24:36.091Z,9.08
2018-08-22T21:29:16.369Z,9.38
2018-08-22T21:33:56.904Z,8.85
2018-08-22T21:38:37.439Z,8.10
2018-08-22T21:43:19.482Z,7.85
2018-08-22T21:48:13.144Z,7.72
2018-08-22T21:52:55.264Z,8.18
2018-08-22T21:57:35.240Z,7.47
2018-08-22T22:02:15.700Z,9.63
2018-08-22T22:06:56.648Z,8.23
2018-08-22T22:11:37.571Z,8.58
2018-08-22T22:16:17.600Z,12.30
2018-08-22T22:21:08.912Z,8.05
2018-08-22T22:25:49.915Z,9.93
2018-08-22T22:30:29.920Z,9.60
2018-08-22T22:35:09.888Z,8.13
2018-08-22T22:39:49.967Z,8.90
2018-08-22T22:44:29.892Z,8.30
2018-08-22T22:49:09.619Z,10.30
2018-08-22T22:53:49.252Z,8.13
2018-08-22T22:58:30.902Z,9.25
2018-08-22T23:03:10.887Z,8.13
2018-08-22T23:07:52.392Z,7.90
2018-08-22T23:12:47.426Z,9.08
2018-08-22T23:17:27.707Z,10.55
2018-08-22T23:22:07.471Z,8.73
2018-08-22T23:26:47.404Z,8.25
2018-08-22T23:31:28.240Z,8.20
2018-08-22T23:36:08.941Z,8.73
2018-08-22T23:40:49.372Z,8.70
2018-08-22T23:45:29.487Z,9.20
2018-08-22T23:50:09.584Z,8.48
2018-08-22T23:54:50.623Z,8.60
2018-08-22T23:59:30.461Z,8.53
